Time;durP1;ratioP1;P1;durP2;ratioP2;P2;SDS_P1;SDS_P2;PMS_P1;PMS_P2;Temp;Humidity;BMP_temperature;BMP_pressure;BME280_temperature;BME280_humidity;BME280_pressure;Samples;Min_cycle;Max_cycle;Signal;HPM_P1;HPM_P2
2023/12/28 00:01:12;;;;;;;5.43;4.00;;;;;;;13.14;73.48;102599.75;4993668;28;20073;-85
2023/12/28 00:03:40;;;;;;;5.13;4.20;;;;;;;13.21;73.39;102612.53;4983339;28;20406;-84
2023/12/28 00:06:06;;;;;;;5.80;4.22;;;;;;;13.54;73.58;102667.38;4983368;28;20037;-86
2023/12/28 00:08:32;;;;;;;6.00;4.05;;;;;;;13.26;73.44;102631.22;4980926;28;20093;-86
2023/12/28 00:10:58;;;;;;;4.68;3.92;;;;;;;13.40;73.62;102664.66;4978540;28;20118;-86
2023/12/28 00:13:24;;;;;;;5.55;4.18;;;;;;;13.42;73.47;102667.41;4997207;28;20026;-86
2023/12/28 00:15:49;;;;;;;4.95;3.70;;;;;;;13.42;73.48;102667.41;4982762;28;20049;-85
2023/12/28 00:18:15;;;;;;;5.65;3.90;;;;;;;13.22;73.64;102651.06;4993005;28;20489;-87
2023/12/28 00:20:41;;;;;;;5.38;4.00;;;;;;;13.42;73.59;102677.91;4986854;28;20085;-86
2023/12/28 00:23:07;;;;;;;5.07;3.92;;;;;;;13.53;73.66;102697.97;4992425;28;20026;-87
2023/12/28 00:25:32;;;;;;;5.03;4.05;;;;;;;13.41;73.52;102686.56;4990254;28;20089;-87
2023/12/28 00:27:58;;;;;;;5.80;4.00;;;;;;;13.18;73.47;102641.13;4957381;28;20035;-85
2023/12/28 00:30:24;;;;;;;5.60;4.05;;;;;;;13.33;73.51;102670.25;4985578;28;20068;-85
2023/12/28 00:32:49;;;;;;;5.68;3.80;;;;;;;13.24;73.64;102656.44;4984804;28;20050;-85
2023/12/28 00:35:15;;;;;;;6.10;4.50;;;;;;;13.49;73.49;102705.50;4969892;28;20066;-87
2023/12/28 00:37:41;;;;;;;5.15;4.00;;;;;;;13.42;73.46;102706.78;4990614;28;20033;-86
2023/12/28 00:40:07;;;;;;;5.57;4.22;;;;;;;13.11;73.64;102662.50;4977669;28;20493;-85
2023/12/28 00:42:32;;;;;;;;;;;;;;;13.51;73.66;102722.28;4986104;28;20030;-86
2023/12/28 00:44:59;;;;;;;4.72;3.78;;;;;;;13.34;73.48;102693.09;4991855;28;19968;-86
2023/12/28 00:47:25;;;;;;;5.70;3.75;;;;;;;13.21;73.51;102679.84;4990885;28;20439;-86
2023/12/28 00:49:51;;;;;;;5.03;3.90;;;;;;;13.22;73.51;102679.91;4983448;28;20045;-86
2023/12/28 00:52:16;;;;;;;4.65;4.07;;;;;;;12.99;73.42;102635.34;4983887;28;20038;-85
2023/12/28 00:54:42;;;;;;;5.47;4.10;;;;;;;13.38;73.74;102715.22;4987398;28;20478;-86
2023/12/28 00:57:08;;;;;;;4.90;4.07;;;;;;;13.18;73.66;102676.97;4986168;28;20088;-87
2023/12/28 00:59:34;;;;;;;4.65;4.07;;;;;;;13.12;73.32;102664.34;4993302;28;20409;-85
2023/12/28 01:02:00;;;;;;;5.18;4.05;;;;;;;13.27;73.48;102693.41;4970014;28;20038;-86
2023/12/28 01:04:26;;;;;;;6.22;4.40;;;;;;;13.30;73.72;102696.28;4992601;28;20486;-85
2023/12/28 01:06:54;;;;;;;5.10;4.15;;;;;;;13.15;73.54;102669.78;4984179;28;20035;-85
2023/12/28 01:09:21;;;;;;;4.95;3.78;;;;;;;13.37;73.73;102708.13;4983207;28;20034;-87
2023/12/28 01:11:47;;;;;;;5.97;4.20;;;;;;;13.08;73.81;102659.66;4978786;28;20022;-86
2023/12/28 01:14:12;;;;;;;4.97;3.92;;;;;;;13.06;73.72;102671.75;4986004;28;20034;-86
2023/12/28 01:16:39;;;;;;;4.82;3.72;;;;;;;13.11;73.61;102665.09;4984150;28;20118;-85
2023/12/28 01:19:06;;;;;;;4.53;3.90;;;;;;;13.23;73.54;102692.25;4984868;28;20066;-86
2023/12/28 01:21:31;;;;;;;;;;;;;;;13.42;73.39;102731.31;4992820;28;20030;-86
2023/12/28 01:23:57;;;;;;;6.30;3.83;;;;;;;13.24;73.64;102706.28;4986338;28;19921;-86
2023/12/28 01:26:22;;;;;;;4.97;4.00;;;;;;;13.33;73.84;102711.31;4985240;28;20113;-86
2023/12/28 01:28:48;;;;;;;5.38;4.13;;;;;;;13.21;73.52;102692.94;4988147;28;20113;-86
2023/12/28 01:31:14;;;;;;;5.43;3.88;;;;;;;13.23;73.32;102699.22;4979641;28;20065;-86
2023/12/28 01:33:39;;;;;;;5.13;4.13;;;;;;;13.34;73.68;102707.94;4983888;28;20035;-86
2023/12/28 01:36:18;;;;;;;6.15;3.75;;;;;;;13.10;73.57;102659.75;4974513;28;20121;-86
2023/12/28 01:38:44;;;;;;;5.20;3.90;;;;;;;13.28;73.68;102695.22;4981890;28;20038;-86
2023/12/28 01:41:10;;;;;;;5.20;3.78;;;;;;;13.39;73.69;102719.66;4978500;28;20034;-85
2023/12/28 01:43:35;;;;;;;4.47;3.75;;;;;;;13.41;73.64;102720.69;4980405;28;20047;-86
2023/12/28 01:46:02;;;;;;;4.47;3.70;;;;;;;13.18;73.28;102687.47;4978261;28;20114;-86
2023/12/28 01:48:27;;;;;;;;;;;;;;;13.39;73.74;102730.16;4980214;28;20058;-85
2023/12/28 01:50:54;;;;;;;5.75;4.00;;;;;;;13.00;73.57;102664.31;4969401;28;19960;-86
2023/12/28 01:53:19;;;;;;;;;;;;;;;13.35;73.51;102723.75;4966925;28;20034;-85
2023/12/28 01:55:45;;;;;;;4.85;3.60;;;;;;;13.11;73.71;102675.59;4980215;28;20499;-85
2023/12/28 01:58:12;;;;;;;5.32;3.78;;;;;;;13.27;73.76;102702.97;4975855;28;20027;-87
2023/12/28 02:00:38;;;;;;;;;;;;;;;13.39;73.52;102717.94;4988238;28;20034;-87
2023/12/28 02:03:06;;;;;;;5.63;3.85;;;;;;;13.35;73.41;102721.13;4987511;28;20008;-87
2023/12/28 02:05:33;;;;;;;4.97;3.92;;;;;;;13.01;73.56;102662.59;4989832;28;20031;-87
2023/12/28 02:07:59;;;;;;;4.57;3.85;;;;;;;13.26;73.43;102699.44;4988122;28;20026;-87
2023/12/28 02:10:24;;;;;;;4.90;3.90;;;;;;;13.15;73.43;102688.16;4981798;28;20104;-87
2023/12/28 02:12:52;;;;;;;4.43;3.67;;;;;;;13.26;73.69;102709.94;4982449;28;20043;-85
2023/12/28 02:15:19;;;;;;;4.70;3.50;;;;;;;13.36;73.40;102715.09;4990634;28;20050;-86
2023/12/28 02:18:26;;;;;;;6.53;4.18;;;;;;;13.29;73.52;102710.19;4977300;28;20100;-86
2023/12/28 02:20:53;;;;;;;4.20;3.60;;;;;;;13.16;73.86;102686.44;4942800;28;20031;-86
2023/12/28 02:23:19;;;;;;;;;;;;;;;13.34;73.54;102714.06;4981292;28;20131;-86
2023/12/28 02:25:45;;;;;;;5.07;3.93;;;;;;;13.26;73.43;102712.56;4974479;28;19917;-86
2023/12/28 02:28:11;;;;;;;5.75;3.80;;;;;;;13.23;73.63;102709.72;4980033;28;20359;-85
2023/12/28 02:30:36;;;;;;;5.38;4.00;;;;;;;13.22;73.15;102705.25;4988851;28;20115;-87
2023/12/28 02:33:15;;;;;;;5.70;4.55;;;;;;;13.18;73.35;102704.09;4984091;28;20085;-87
2023/12/28 02:35:51;;;;;;;5.47;3.88;;;;;;;13.33;73.16;102724.44;4985167;28;20049;-87
2023/12/28 02:38:17;;;;;;;4.75;3.63;;;;;;;13.08;73.57;102688.50;4982855;28;20556;-87
2023/12/28 02:40:44;;;;;;;4.60;3.55;;;;;;;13.31;73.42;102726.94;4987657;28;20030;-86
2023/12/28 02:43:11;;;;;;;5.57;3.80;;;;;;;13.04;73.24;102681.22;4969640;28;20061;-86
2023/12/28 02:45:38;;;;;;;5.50;4.00;;;;;;;13.27;73.69;102724.91;4964604;28;20054;-87
2023/12/28 02:48:04;;;;;;;6.28;4.15;;;;;;;13.26;73.38;102725.69;4970407;28;20054;-86
2023/12/28 02:50:31;;;;;;;6.43;4.25;;;;;;;13.07;73.83;102686.66;4974703;28;20493;-86
2023/12/28 02:52:57;;;;;;;5.38;3.83;;;;;;;12.97;73.92;102679.81;4986443;28;20038;-86
2023/12/28 02:55:23;;;;;;;5.72;4.22;;;;;;;13.14;73.79;102706.38;4985268;28;20026;-87
2023/12/28 02:57:55;;;;;;;4.88;3.80;;;;;;;13.27;73.92;102740.63;4987056;28;20393;-86
2023/12/28 03:00:21;;;;;;;4.43;3.70;;;;;;;13.26;73.91;102741.41;4972356;28;20438;-86
2023/12/28 03:02:47;;;;;;;;;;;;;;;13.30;73.56;102743.50;4987031;28;20113;-87
2023/12/28 03:05:13;;;;;;;6.15;3.92;;;;;;;13.22;73.89;102735.03;4973835;28;20053;-86
2023/12/28 03:07:40;;;;;;;5.05;3.83;;;;;;;13.15;73.56;102716.09;4989821;28;20408;-87
2023/12/28 03:10:07;;;;;;;4.57;3.63;;;;;;;13.15;73.53;102717.00;4986850;28;20039;-84
2023/12/28 03:12:32;;;;;;;4.68;3.78;;;;;;;12.95;73.48;102684.06;4989212;28;20069;-87
2023/12/28 03:14:58;;;;;;;4.53;3.45;;;;;;;12.72;73.50;102649.91;4987600;28;20474;-87
2023/12/28 03:17:24;;;;;;;4.72;3.63;;;;;;;13.14;73.52;102723.03;4972839;28;20037;-87
2023/12/28 03:19:50;;;;;;;5.55;3.97;;;;;;;13.22;73.32;102735.03;4987424;28;20486;-87
2023/12/28 03:22:17;;;;;;;6.60;4.05;;;;;;;12.77;73.28;102661.69;4991013;28;20073;-87
2023/12/28 03:24:43;;;;;;;5.45;3.72;;;;;;;13.15;73.44;102742.34;4991446;28;20085;-87
2023/12/28 03:27:09;;;;;;;4.55;3.55;;;;;;;13.02;73.41;102712.56;4975809;28;20042;-86
2023/12/28 03:29:34;;;;;;;5.20;3.95;;;;;;;13.17;73.98;102749.53;4988262;28;20023;-87
2023/12/28 03:32:00;;;;;;;4.45;3.80;;;;;;;12.98;73.84;102710.50;4993584;28;20124;-87
2023/12/28 03:34:29;;;;;;;4.22;3.22;;;;;;;12.94;74.01;102710.16;4994138;28;20574;-87
2023/12/28 03:36:56;;;;;;;5.20;3.63;;;;;;;13.03;73.73;102739.69;4991197;28;20457;-86
2023/12/28 03:39:23;;;;;;;5.70;3.63;;;;;;;12.61;73.65;102662.22;4975651;28;20039;-87
2023/12/28 03:41:49;;;;;;;5.22;3.35;;;;;;;12.87;73.83;102707.84;4991076;28;20097;-88
2023/12/28 03:44:14;;;;;;;4.43;3.28;;;;;;;12.89;73.77;102707.19;4973144;28;20133;-87
2023/12/28 03:46:40;;;;;;;5.25;3.88;;;;;;;12.63;73.42;102676.34;4988269;28;20042;-86
2023/12/28 03:49:06;;;;;;;5.55;3.70;;;;;;;13.12;73.43;102752.59;4978037;28;20122;-85
2023/12/28 03:51:31;;;;;;;4.65;3.60;;;;;;;13.18;73.70;102764.44;4979506;28;20108;-86
2023/12/28 03:53:57;;;;;;;4.65;3.58;;;;;;;13.05;73.31;102738.09;4980891;28;20026;-86
2023/12/28 03:56:25;;;;;;;5.88;3.58;;;;;;;13.17;73.76;102759.09;4963656;28;20113;-86
2023/12/28 03:58:51;;;;;;;4.70;3.58;;;;;;;13.08;73.76;102748.84;4988927;28;20031;-85
2023/12/28 04:01:21;;;;;;;4.45;3.38;;;;;;;13.13;73.97;102770.16;4987628;28;20045;-86
2023/12/28 04:03:48;;;;;;;5.15;3.70;;;;;;;12.97;73.36;102740.13;4984241;28;20031;-86
2023/12/28 04:06:15;;;;;;;4.25;3.40;;;;;;;13.09;73.34;102758.50;4973839;28;20035;-86
2023/12/28 04:08:42;;;;;;;4.93;3.70;;;;;;;13.03;73.51;102747.56;4987240;28;20160;-86
2023/12/28 04:11:08;;;;;;;5.20;3.60;;;;;;;13.10;73.97;102762.97;4978990;28;20025;-85
2023/12/28 04:13:33;;;;;;;;;;;;;;;13.16;74.03;102771.28;4987945;28;20544;-86
2023/12/28 04:15:59;;;;;;;4.47;3.42;;;;;;;12.69;73.78;102697.78;4986392;28;19909;-86
2023/12/28 04:18:25;;;;;;;4.38;3.28;;;;;;;12.67;73.57;102696.75;4994575;28;20030;-86
2023/12/28 04:20:51;;;;;;;3.58;3.08;;;;;;;12.80;74.04;102709.09;4990282;28;20049;-87
2023/12/28 04:23:16;;;;;;;4.45;3.38;;;;;;;12.55;73.90;102654.81;4990829;28;20429;-87
2023/12/28 04:25:42;;;;;;;4.70;3.50;;;;;;;12.87;73.67;102695.69;4982961;28;20034;-86
2023/12/28 04:28:08;;;;;;;3.83;3.28;;;;;;;13.01;73.84;102734.31;4991812;28;20497;-87
2023/12/28 04:30:35;;;;;;;5.97;4.00;;;;;;;13.03;73.92;102722.22;4983717;28;20088;-87
2023/12/28 04:33:02;;;;;;;4.40;3.35;;;;;;;13.06;73.74;102736.38;4980365;28;20845;-87
2023/12/28 04:35:28;;;;;;;4.43;3.33;;;;;;;12.94;73.76;102715.41;4990197;28;20022;-87
2023/12/28 04:37:54;;;;;;;;;;;;;;;13.09;73.72;102739.25;4991441;28;20069;-86
2023/12/28 04:40:19;;;;;;;4.10;3.30;;;;;;;12.82;74.25;102695.28;4991794;28;19914;-86
2023/12/28 04:42:45;;;;;;;4.90;3.50;;;;;;;12.83;73.51;102685.75;4984196;28;20034;-87
2023/12/28 04:45:11;;;;;;;4.72;3.50;;;;;;;12.67;73.99;102662.69;4971038;28;20033;-87
2023/12/28 04:47:37;;;;;;;4.70;3.58;;;;;;;12.93;74.11;102706.63;4988881;28;20064;-87
2023/12/28 04:50:07;;;;;;;4.05;3.28;;;;;;;13.00;73.99;102727.25;4990572;28;20505;-87
2023/12/28 04:52:32;;;;;;;4.47;3.63;;;;;;;12.87;74.18;102711.41;4957917;28;20065;-87
2023/12/28 04:54:58;;;;;;;3.97;3.17;;;;;;;12.98;74.29;102736.72;4986730;28;20061;-86
2023/12/28 04:57:25;;;;;;;4.22;3.20;;;;;;;12.90;74.00;102721.22;4990060;28;20030;-87
2023/12/28 04:59:52;;;;;;;4.10;3.38;;;;;;;12.98;74.48;102736.72;4978046;28;20533;-86
2023/12/28 05:02:17;;;;;;;3.60;3.20;;;;;;;12.95;74.25;102736.50;4992022;28;20022;-86
2023/12/28 05:04:43;;;;;;;4.45;3.28;;;;;;;12.96;73.72;102733.06;4982341;28;20088;-86
2023/12/28 05:07:09;;;;;;;3.80;3.35;;;;;;;12.93;73.87;102730.22;4982022;28;20031;-86
2023/12/28 05:09:34;;;;;;;4.15;3.13;;;;;;;12.84;73.45;102717.31;4974329;28;20023;-86
2023/12/28 05:12:00;;;;;;;5.47;3.72;;;;;;;12.84;74.05;102717.31;4991220;28;20034;-86
2023/12/28 05:14:26;;;;;;;6.65;4.07;;;;;;;12.87;73.73;102729.75;4989036;28;20028;-87
2023/12/28 05:16:52;;;;;;;7.30;4.20;;;;;;;13.02;73.90;102748.38;4981253;28;20033;-86
2023/12/28 05:19:17;;;;;;;7.38;4.72;;;;;;;12.92;73.59;102722.25;4984248;28;20026;-86
2023/12/28 05:21:43;;;;;;;7.93;4.45;;;;;;;12.39;73.93;102639.63;4991412;28;20042;-87
2023/12/28 05:24:09;;;;;;;7.32;3.92;;;;;;;12.69;73.90;102684.69;4985540;28;20026;-86
2023/12/28 05:26:37;;;;;;;5.13;3.47;;;;;;;12.46;73.52;102647.94;4987568;28;20039;-86
2023/12/28 05:29:03;;;;;;;5.47;3.60;;;;;;;12.74;73.74;102699.06;4965899;28;20093;-87
2023/12/28 05:31:29;;;;;;;4.90;3.45;;;;;;;12.62;73.76;102687.66;4974552;28;20035;-87
2023/12/28 05:33:55;;;;;;;4.30;3.40;;;;;;;12.66;74.40;102688.78;4972672;28;20497;-87
2023/12/28 05:36:20;;;;;;;6.40;3.60;;;;;;;12.87;74.35;102739.31;4973186;28;20057;-86
2023/12/28 05:38:46;;;;;;;5.15;3.88;;;;;;;12.60;73.43;102699.72;4984015;28;20034;-87
2023/12/28 05:41:12;;;;;;;5.82;4.07;;;;;;;12.63;73.52;102708.72;4974284;28;20027;-87
2023/12/28 05:43:38;;;;;;;6.57;4.00;;;;;;;12.72;73.91;102716.41;4972368;28;20121;-86
2023/12/28 05:46:07;;;;;;;6.70;4.18;;;;;;;12.84;73.52;102726.88;4987042;28;20054;-86
2023/12/28 05:48:33;;;;;;;7.28;4.85;;;;;;;12.46;73.66;102682.94;4980365;28;20142;-87
2023/12/28 05:50:58;;;;;;;8.23;4.50;;;;;;;12.71;73.78;102718.88;4982616;28;20038;-86
2023/12/28 05:53:25;;;;;;;6.50;4.00;;;;;;;12.51;73.42;102686.84;4981292;28;20028;-86
2023/12/28 05:55:50;;;;;;;5.40;3.75;;;;;;;12.74;73.91;102729.59;4981114;28;20434;-87
2023/12/28 05:58:16;;;;;;;4.82;3.72;;;;;;;12.63;73.61;102711.34;4979681;28;20065;-86
2023/12/28 06:00:42;;;;;;;5.30;4.00;;;;;;;12.72;74.34;102728.56;4985458;28;20128;-85
2023/12/28 06:03:08;;;;;;;6.38;3.72;;;;;;;12.79;74.13;102749.22;4968878;28;20418;-86
2023/12/28 06:05:34;;;;;;;5.45;3.92;;;;;;;12.66;73.69;102723.78;4986040;28;20022;-86
2023/12/28 06:08:00;;;;;;;5.50;3.75;;;;;;;12.67;73.66;102717.72;4968222;28;20053;-86
2023/12/28 06:10:25;;;;;;;6.10;4.47;;;;;;;12.75;73.85;102741.94;4978208;28;20037;-87
2023/12/28 06:12:51;;;;;;;5.85;4.18;;;;;;;12.80;74.42;102743.19;4983666;28;20740;-87
2023/12/28 06:15:17;;;;;;;6.28;4.47;;;;;;;12.68;74.06;102737.00;4978788;28;20027;-87
2023/12/28 06:17:43;;;;;;;7.25;4.53;;;;;;;12.80;74.28;102761.53;4982379;28;20078;-88
2023/12/28 06:20:09;;;;;;;6.75;4.80;;;;;;;12.66;73.59;102756.94;4983715;28;20113;-87
2023/12/28 06:22:39;;;;;;;8.07;5.20;;;;;;;12.66;74.02;102762.16;4975359;28;20022;-87
2023/12/28 06:25:05;;;;;;;8.75;5.38;;;;;;;12.67;73.93;102767.53;4984824;28;20029;-87
2023/12/28 06:27:30;;;;;;;7.05;4.93;;;;;;;12.71;73.79;102755.59;4978783;28;20038;-87
2023/12/28 06:29:56;;;;;;;6.60;4.57;;;;;;;12.41;74.04;102724.50;4977307;28;20030;-87
2023/12/28 06:32:22;;;;;;;6.93;4.82;;;;;;;12.57;74.12;102751.88;4977835;28;20047;-89
2023/12/28 06:34:48;;;;;;;7.72;4.93;;;;;;;12.62;74.20;102763.66;4977194;28;20039;-87
2023/12/28 06:37:15;;;;;;;7.63;5.00;;;;;;;12.74;74.04;102792.53;4977605;28;20113;-88
2023/12/28 06:39:44;;;;;;;5.35;4.45;;;;;;;12.72;74.60;102781.94;4976158;28;20112;-89
2023/12/28 06:42:09;;;;;;;6.15;4.20;;;;;;;12.65;74.41;102774.38;4968620;28;20099;-87
2023/12/28 06:44:35;;;;;;;7.82;5.10;;;;;;;12.56;74.00;102760.56;4980048;28;20106;-87
2023/12/28 06:47:01;;;;;;;5.80;4.35;;;;;;;12.53;74.20;102758.63;4971083;28;20046;-86
2023/12/28 06:49:27;;;;;;;6.78;4.50;;;;;;;12.70;74.48;102791.38;4983721;28;20034;-86
2023/12/28 06:51:52;;;;;;;6.07;4.40;;;;;;;12.67;74.11;102782.38;4967683;28;20038;-86
2023/12/28 06:54:18;;;;;;;5.55;4.43;;;;;;;12.69;74.11;102786.94;4968779;28;20490;-86
2023/12/28 06:56:44;;;;;;;5.47;3.85;;;;;;;12.20;73.77;102705.41;4980215;28;20085;-86
2023/12/28 06:59:12;;;;;;;6.45;4.40;;;;;;;12.43;73.92;102735.09;4969760;28;20038;-86
2023/12/28 07:01:39;;;;;;;6.07;4.20;;;;;;;12.47;74.09;102745.03;4968547;28;20030;-86
2023/12/28 07:04:04;;;;;;;6.40;4.28;;;;;;;12.20;74.28;102686.16;4990088;28;20446;-86
2023/12/28 07:06:30;;;;;;;7.00;4.68;;;;;;;12.56;73.62;102755.31;4976627;28;20027;-85
2023/12/28 07:08:56;;;;;;;5.32;4.22;;;;;;;12.60;73.92;102762.63;4977726;28;20560;-86
2023/12/28 07:11:22;;;;;;;6.40;4.45;;;;;;;12.67;74.16;102769.25;4972018;28;20042;-85
2023/12/28 07:13:48;;;;;;;5.60;4.07;;;;;;;12.67;74.35;102775.41;4985186;28;20125;-85
2023/12/28 07:16:14;;;;;;;6.75;4.82;;;;;;;12.61;74.14;102767.06;4972628;28;20083;-85
2023/12/28 07:18:39;;;;;;;6.35;4.40;;;;;;;12.54;74.01;102767.41;4980491;28;20096;-85
2023/12/28 07:21:06;;;;;;;5.90;4.30;;;;;;;12.66;74.19;102777.91;4984929;28;20537;-84
2023/12/28 07:23:31;;;;;;;;;;;;;;;12.65;74.07;102779.63;4985980;28;20041;-85
2023/12/28 07:25:58;;;;;;;6.13;4.70;;;;;;;12.59;74.30;102774.84;4983164;28;19914;-85
2023/12/28 07:28:23;;;;;;;8.45;5.32;;;;;;;12.36;74.34;102740.66;4979237;28;20053;-87
2023/12/28 07:30:49;;;;;;;6.50;4.80;;;;;;;12.52;74.58;102766.34;4984294;28;20554;-86
2023/12/28 07:33:15;;;;;;;8.23;5.05;;;;;;;12.60;74.13;102771.41;4987223;28;20023;-87
2023/12/28 07:35:40;;;;;;;6.85;4.78;;;;;;;12.51;74.08;102741.88;4986626;28;20457;-86
2023/12/28 07:38:06;;;;;;;6.75;4.50;;;;;;;12.62;74.13;102771.53;4982625;28;20105;-88
2023/12/28 07:40:32;;;;;;;6.32;4.50;;;;;;;12.30;74.42;102720.13;4990220;28;20023;-87
2023/12/28 07:42:57;;;;;;;7.18;4.88;;;;;;;12.47;74.32;102749.38;4993238;28;20113;-85
2023/12/28 07:45:24;;;;;;;7.97;4.93;;;;;;;12.27;74.48;102721.59;4979211;28;20034;-85
2023/12/28 07:47:50;;;;;;;;;;;;;;;12.62;74.34;102779.38;4985696;28;20034;-89
2023/12/28 07:50:19;;;;;;;5.75;4.53;;;;;;;12.30;74.41;102742.81;4993684;28;19953;-87
2023/12/28 07:52:46;;;;;;;6.97;5.00;;;;;;;12.16;73.91;102711.19;4976558;28;20558;-87
2023/12/28 07:55:12;;;;;;;7.78;5.00;;;;;;;12.33;74.29;102735.19;4973471;28;20429;-88
2023/12/28 07:57:38;;;;;;;7.40;5.28;;;;;;;12.61;74.58;102791.59;4981389;28;20050;-87
2023/12/28 08:00:05;;;;;;;7.70;5.45;;;;;;;12.61;74.58;102788.03;4977865;28;20108;-86
2023/12/28 08:02:31;;;;;;;7.25;5.28;;;;;;;12.57;74.62;102789.53;4969028;28;20442;-87
2023/12/28 08:04:56;;;;;;;7.63;5.28;;;;;;;12.22;74.67;102718.63;4975302;28;20023;-87
2023/12/28 08:07:22;;;;;;;7.10;5.38;;;;;;;12.31;74.51;102734.16;4982128;28;20416;-87
2023/12/28 08:09:48;;;;;;;6.15;4.75;;;;;;;12.58;74.91;102796.56;4963401;28;20176;-87
2023/12/28 08:12:14;;;;;;;6.10;4.80;;;;;;;12.47;74.66;102789.59;4985005;28;20472;-87
2023/12/28 08:14:40;;;;;;;7.63;5.15;;;;;;;12.62;74.65;102806.50;4979669;28;20610;-86
2023/12/28 08:17:06;;;;;;;6.43;4.63;;;;;;;12.41;73.91;102758.56;4987948;28;20022;-87
2023/12/28 08:19:32;;;;;;;6.35;4.88;;;;;;;12.61;74.55;102788.97;4985411;28;20062;-85
2023/12/28 08:21:57;;;;;;;6.78;4.72;;;;;;;12.60;74.71;102788.84;4971998;28;20041;-86
2023/12/28 08:24:23;;;;;;;6.82;4.78;;;;;;;12.30;74.52;102729.72;4983957;28;20524;-86
2023/12/28 08:26:49;;;;;;;6.53;4.47;;;;;;;12.46;74.62;102755.38;4973643;28;20078;-86
2023/12/28 08:29:14;;;;;;;6.15;4.82;;;;;;;12.31;74.51;102729.81;4981714;28;20026;-86
2023/12/28 08:31:40;;;;;;;8.45;4.97;;;;;;;12.46;74.63;102753.69;4978440;28;20050;-87
2023/12/28 08:34:06;;;;;;;6.45;4.80;;;;;;;12.30;74.78;102725.38;4967766;28;20185;-86
2023/12/28 08:36:32;;;;;;;6.15;4.60;;;;;;;12.45;74.67;102757.09;4972619;28;20117;-86
2023/12/28 08:38:57;;;;;;;6.18;4.40;;;;;;;12.49;74.62;102758.25;4971392;28;20653;-86
2023/12/28 08:41:24;;;;;;;6.35;4.50;;;;;;;12.33;74.76;102740.41;4989607;28;20053;-87
2023/12/28 08:43:51;;;;;;;6.78;4.82;;;;;;;12.57;74.93;102778.09;4979500;28;20039;-86
2023/12/28 08:46:17;;;;;;;5.28;4.40;;;;;;;12.36;74.97;102743.25;4989967;28;20076;-86
2023/12/28 08:48:43;;;;;;;7.22;4.60;;;;;;;12.42;74.98;102748.97;4987246;28;20069;-86
2023/12/28 08:51:14;;;;;;;7.43;5.18;;;;;;;12.51;74.72;102770.69;4976523;28;20118;-86
2023/12/28 08:53:40;;;;;;;5.43;4.47;;;;;;;12.22;74.97;102713.38;4982075;28;20031;-86
2023/12/28 08:56:33;;;;;;;7.90;4.78;;;;;;;12.53;75.17;102769.09;4984850;28;20050;-86
2023/12/28 08:58:58;;;;;;;5.50;4.35;;;;;;;12.53;74.94;102763.88;4970000;28;20502;-86
2023/12/28 09:01:29;;;;;;;6.72;4.82;;;;;;;12.06;74.90;102689.38;4976376;28;20034;-87
2023/12/28 09:03:55;;;;;;;6.00;4.78;;;;;;;12.41;75.09;102744.56;4990606;28;20476;-87
2023/12/28 09:06:21;;;;;;;6.80;4.45;;;;;;;12.40;74.84;102730.56;4986670;28;20537;-85
2023/12/28 09:08:50;;;;;;;;;;;;;;;12.52;74.91;102748.00;4988420;28;20031;-85
2023/12/28 09:11:16;;;;;;;7.22;4.80;;;;;;;12.18;74.76;102691.25;4972024;28;19932;-85
2023/12/28 09:13:42;;;;;;;7.32;4.90;;;;;;;12.49;75.31;102740.84;4983756;28;20030;-86
2023/12/28 09:16:11;;;;;;;6.07;4.10;;;;;;;12.42;74.79;102725.41;4990984;28;20034;-86
2023/12/28 09:18:38;;;;;;;5.85;4.15;;;;;;;12.08;74.93;102665.13;4989754;28;20025;-85
2023/12/28 09:21:04;;;;;;;5.15;4.00;;;;;;;12.33;75.15;102707.25;4975761;28;20481;-84
2023/12/28 09:23:34;;;;;;;6.57;4.53;;;;;;;12.50;75.21;102732.16;4959760;28;20031;-85
2023/12/28 09:26:03;;;;;;;5.82;4.50;;;;;;;12.51;74.93;102718.28;4988459;28;20782;-85
2023/12/28 09:28:30;;;;;;;5.40;4.13;;;;;;;12.48;75.17;102715.41;4984505;28;20027;-86
2023/12/28 09:30:55;;;;;;;;;;;;;;;12.51;75.09;102709.47;4984642;28;20046;-86
2023/12/28 09:33:22;;;;;;;5.47;4.15;;;;;;;12.49;75.26;102704.13;4958956;28;19918;-86
2023/12/28 09:35:48;;;;;;;5.15;4.35;;;;;;;12.36;75.04;102678.69;4983540;28;20053;-86
2023/12/28 09:38:16;;;;;;;5.45;4.05;;;;;;;12.28;75.40;102653.63;4977141;28;20406;-86
2023/12/28 09:40:43;;;;;;;6.00;4.20;;;;;;;12.27;74.96;102657.00;4984805;28;20516;-86
2023/12/28 09:43:36;;;;;;;;;;;;;;;12.51;74.96;102686.84;4985799;28;20070;-86
2023/12/28 09:46:07;;;;;;;6.95;4.32;;;;;;;12.19;75.35;102630.25;4976989;28;19933;-86
2023/12/28 09:48:33;;;;;;;5.97;4.50;;;;;;;12.49;75.27;102683.19;4970261;28;20035;-85
2023/12/28 09:50:59;;;;;;;6.10;4.07;;;;;;;12.18;75.13;102620.53;4985243;28;20161;-87
2023/12/28 09:53:25;;;;;;;5.20;3.83;;;;;;;12.50;75.23;102677.13;4983773;28;20053;-86
2023/12/28 09:55:54;;;;;;;;;;;;;;;12.50;75.14;102670.97;4969270;28;20808;-86
2023/12/28 09:58:21;;;;;;;5.85;4.18;;;;;;;12.14;75.01;102610.63;4975030;28;20385;-86
2023/12/28 10:00:48;;;;;;;6.78;4.50;;;;;;;12.50;75.16;102666.63;4974635;28;20497;-86
2023/12/28 10:03:17;;;;;;;4.47;3.65;;;;;;;12.28;74.97;102624.78;4975591;28;20029;-86
2023/12/28 10:05:47;;;;;;;6.40;4.30;;;;;;;12.36;74.76;102622.75;4973908;28;20041;-86
2023/12/28 10:08:13;;;;;;;5.65;3.95;;;;;;;12.40;74.88;102630.97;4986672;28;20042;-87
2023/12/28 10:10:40;;;;;;;6.30;3.90;;;;;;;12.52;74.78;102645.81;4974191;28;20030;-87
2023/12/28 10:13:09;;;;;;;5.35;4.00;;;;;;;12.49;75.01;102648.16;4984719;28;20026;-86
2023/12/28 10:15:43;;;;;;;5.22;4.10;;;;;;;12.37;75.01;102611.47;4979208;28;20053;-85
2023/12/28 10:18:09;;;;;;;5.35;4.07;;;;;;;12.39;74.97;102612.50;4983853;28;20045;-86
2023/12/28 10:20:35;;;;;;;5.90;4.25;;;;;;;12.51;75.11;102630.84;4990396;28;20030;-87
2023/12/28 10:23:00;;;;;;;6.57;4.00;;;;;;;12.52;75.00;102628.38;4980379;28;20034;-87
2023/12/28 10:25:27;;;;;;;5.72;4.03;;;;;;;12.38;74.79;102605.44;4975482;28;20445;-86
2023/12/28 10:27:53;;;;;;;7.05;4.35;;;;;;;12.24;74.60;102577.28;4975040;28;20042;-87
2023/12/28 10:30:22;;;;;;;5.90;3.88;;;;;;;11.98;74.86;102534.28;4966400;28;20655;-87
2023/12/28 10:32:48;;;;;;;5.90;3.90;;;;;;;12.39;74.91;102605.56;4982485;28;20047;-87
2023/12/28 10:35:13;;;;;;;5.95;4.35;;;;;;;12.51;75.09;102630.84;4979327;28;20081;-87
2023/12/28 10:37:43;;;;;;;5.63;4.03;;;;;;;12.01;74.89;102538.06;4984421;28;20660;-87
2023/12/28 10:40:17;;;;;;;5.60;4.03;;;;;;;12.21;74.74;102567.47;4988079;28;20026;-87
2023/12/28 10:42:46;;;;;;;5.10;3.80;;;;;;;12.08;74.87;102531.56;4986811;28;20036;-87
2023/12/28 10:45:13;;;;;;;5.47;4.00;;;;;;;11.96;75.15;102513.25;4989558;28;20498;-87
2023/12/28 10:47:43;;;;;;;6.22;3.88;;;;;;;12.52;74.67;102604.78;4983374;28;20556;-86
2023/12/28 10:50:11;;;;;;;4.78;4.03;;;;;;;12.53;74.52;102593.50;4971377;28;20035;-86
2023/12/28 10:52:37;;;;;;;5.88;4.10;;;;;;;12.53;74.01;102588.28;4981520;28;20035;-87
2023/12/28 10:55:09;;;;;;;4.65;3.80;;;;;;;12.52;74.86;102593.38;4980578;28;20478;-86
2023/12/28 10:57:40;;;;;;;5.65;4.20;;;;;;;12.50;74.65;102584.50;4982455;28;20026;-86
2023/12/28 11:00:20;;;;;;;6.68;3.80;;;;;;;12.46;74.90;102575.47;4985524;28;20502;-85
2023/12/28 11:02:51;;;;;;;5.55;4.00;;;;;;;12.36;74.88;102554.63;4975577;28;20529;-86
2023/12/28 11:05:20;;;;;;;5.97;4.20;;;;;;;12.42;74.88;102544.59;4968849;28;20037;-86
2023/12/28 11:07:46;;;;;;;5.03;3.85;;;;;;;12.55;74.67;102570.97;4973270;28;20501;-86
2023/12/28 11:10:13;;;;;;;6.60;4.53;;;;;;;12.27;74.36;102519.88;4968455;28;20038;-86
2023/12/28 11:12:41;;;;;;;6.28;4.15;;;;;;;12.06;74.46;102482.50;4987831;28;20018;-87
2023/12/28 11:15:07;;;;;;;6.13;4.22;;;;;;;12.52;74.70;102556.69;4981110;28;20037;-86
2023/12/28 11:17:33;;;;;;;5.47;4.20;;;;;;;12.47;74.57;102552.84;4980143;28;20031;-87
2023/12/28 11:19:59;;;;;;;6.05;4.13;;;;;;;12.30;74.16;102525.38;4972791;28;20497;-85
2023/12/28 11:22:26;;;;;;;4.72;3.83;;;;;;;12.52;74.76;102569.81;4988869;28;20555;-88
2023/12/28 11:24:53;;;;;;;6.40;4.20;;;;;;;12.11;74.36;102487.31;4985720;28;20178;-88
2023/12/28 11:27:19;;;;;;;4.93;3.90;;;;;;;12.06;74.42;102477.28;4965319;28;20426;-86